sensor_id;sensor_type;location;lat;lon;timestamp;temperature;humidity
20481;DHT22;10399;50.754;3.366;2023-05-10T00:00:57;14.80;99.90
20481;DHT22;10399;50.754;3.366;2023-05-10T00:03:24;14.90;99.90
20481;DHT22;10399;50.754;3.366;2023-05-10T00:05:52;14.80;99.90
20481;DHT22;10399;50.754;3.366;2023-05-10T00:08:18;14.80;99.90
20481;DHT22;10399;50.754;3.366;2023-05-10T00:10:46;14.80;99.90
20481;DHT22;10399;50.754;3.366;2023-05-10T00:13:13;14.90;99.90
20481;DHT22;10399;50.754;3.366;2023-05-10T00:15:41;14.80;99.90
20481;DHT22;10399;50.754;3.366;2023-05-10T00:18:08;14.90;99.90
20481;DHT22;10399;50.754;3.366;2023-05-10T00:20:35;14.80;99.90
20481;DHT22;10399;50.754;3.366;2023-05-10T00:23:02;14.70;99.90
20481;DHT22;10399;50.754;3.366;2023-05-10T00:25:29;14.60;99.90
20481;DHT22;10399;50.754;3.366;2023-05-10T00:27:56;14.40;99.90
20481;DHT22;10399;50.754;3.366;2023-05-10T00:30:24;14.40;99.90
20481;DHT22;10399;50.754;3.366;2023-05-10T00:32:52;14.50;99.90
20481;DHT22;10399;50.754;3.366;2023-05-10T00:35:19;14.50;99.90
20481;DHT22;10399;50.754;3.366;2023-05-10T00:37:46;14.60;99.90
20481;DHT22;10399;50.754;3.366;2023-05-10T00:40:13;14.60;99.90
20481;DHT22;10399;50.754;3.366;2023-05-10T00:42:41;14.70;99.90
20481;DHT22;10399;50.754;3.366;2023-05-10T00:45:08;14.60;99.90
20481;DHT22;10399;50.754;3.366;2023-05-10T00:47:36;14.60;99.90
20481;DHT22;10399;50.754;3.366;2023-05-10T00:50:03;14.70;99.90
20481;DHT22;10399;50.754;3.366;2023-05-10T00:52:31;14.70;99.90
20481;DHT22;10399;50.754;3.366;2023-05-10T00:54:58;14.70;99.90
20481;DHT22;10399;50.754;3.366;2023-05-10T00:57:26;14.70;99.90
20481;DHT22;10399;50.754;3.366;2023-05-10T00:59:53;14.60;99.90
20481;DHT22;10399;50.754;3.366;2023-05-10T01:02:21;14.60;99.90
20481;DHT22;10399;50.754;3.366;2023-05-10T01:04:49;14.50;99.90
20481;DHT22;10399;50.754;3.366;2023-05-10T01:07:16;14.60;99.90
20481;DHT22;10399;50.754;3.366;2023-05-10T01:09:43;14.50;99.90
20481;DHT22;10399;50.754;3.366;2023-05-10T01:12:11;14.40;99.90
20481;DHT22;10399;50.754;3.366;2023-05-10T01:14:38;14.30;99.90
20481;DHT22;10399;50.754;3.366;2023-05-10T01:17:05;14.30;99.90
20481;DHT22;10399;50.754;3.366;2023-05-10T01:19:34;14.30;99.90
20481;DHT22;10399;50.754;3.366;2023-05-10T01:30:08;14.30;99.90
20481;DHT22;10399;50.754;3.366;2023-05-10T01:33:14;14.40;99.90
20481;DHT22;10399;50.754;3.366;2023-05-10T01:36:12;14.40;99.90
20481;DHT22;10399;50.754;3.366;2023-05-10T01:38:57;14.20;99.90
20481;DHT22;10399;50.754;3.366;2023-05-10T01:41:43;14.30;99.90
20481;DHT22;10399;50.754;3.366;2023-05-10T01:44:18;14.30;99.90
20481;DHT22;10399;50.754;3.366;2023-05-10T01:47:01;14.30;99.90
20481;DHT22;10399;50.754;3.366;2023-05-10T01:49:34;14.30;99.90
20481;DHT22;10399;50.754;3.366;2023-05-10T01:52:10;14.20;99.90
20481;DHT22;10399;50.754;3.366;2023-05-10T01:54:42;14.40;99.90
20481;DHT22;10399;50.754;3.366;2023-05-10T01:57:11;14.30;99.90
20481;DHT22;10399;50.754;3.366;2023-05-10T01:59:43;14.30;99.90
20481;DHT22;10399;50.754;3.366;2023-05-10T02:02:14;14.40;99.90
20481;DHT22;10399;50.754;3.366;2023-05-10T02:04:42;14.40;99.90
20481;DHT22;10399;50.754;3.366;2023-05-10T02:07:10;14.20;99.90
20481;DHT22;10399;50.754;3.366;2023-05-10T02:09:38;14.40;99.90
20481;DHT22;10399;50.754;3.366;2023-05-10T02:12:07;14.50;99.90
20481;DHT22;10399;50.754;3.366;2023-05-10T02:14:36;14.50;99.90
20481;DHT22;10399;50.754;3.366;2023-05-10T02:17:05;14.50;99.90
20481;DHT22;10399;50.754;3.366;2023-05-10T02:19:33;14.50;99.90
20481;DHT22;10399;50.754;3.366;2023-05-10T02:22:01;14.40;99.90
20481;DHT22;10399;50.754;3.366;2023-05-10T02:24:30;14.20;99.90
20481;DHT22;10399;50.754;3.366;2023-05-10T02:26:59;14.00;99.90
20481;DHT22;10399;50.754;3.366;2023-05-10T02:29:27;14.00;99.90
20481;DHT22;10399;50.754;3.366;2023-05-10T02:31:57;14.00;99.90
20481;DHT22;10399;50.754;3.366;2023-05-10T02:34:28;14.00;99.90
20481;DHT22;10399;50.754;3.366;2023-05-10T02:36:57;13.90;99.90
20481;DHT22;10399;50.754;3.366;2023-05-10T02:39:27;13.80;99.90
20481;DHT22;10399;50.754;3.366;2023-05-10T02:41:56;13.60;99.90
20481;DHT22;10399;50.754;3.366;2023-05-10T02:44:26;13.60;99.90
20481;DHT22;10399;50.754;3.366;2023-05-10T02:46:55;13.50;99.90
20481;DHT22;10399;50.754;3.366;2023-05-10T02:49:23;13.40;99.90
20481;DHT22;10399;50.754;3.366;2023-05-10T02:51:57;13.40;99.90
20481;DHT22;10399;50.754;3.366;2023-05-10T02:54:30;13.50;99.90
20481;DHT22;10399;50.754;3.366;2023-05-10T02:57:00;13.50;99.90
20481;DHT22;10399;50.754;3.366;2023-05-10T02:59:29;13.40;99.90
20481;DHT22;10399;50.754;3.366;2023-05-10T03:01:56;13.60;99.90
20481;DHT22;10399;50.754;3.366;2023-05-10T03:04:23;13.50;99.90
20481;DHT22;10399;50.754;3.366;2023-05-10T03:06:51;13.60;99.90
20481;DHT22;10399;50.754;3.366;2023-05-10T03:09:18;13.50;99.90
20481;DHT22;10399;50.754;3.366;2023-05-10T03:12:52;13.60;99.90
20481;DHT22;10399;50.754;3.366;2023-05-10T03:20:29;13.50;99.90
20481;DHT22;10399;50.754;3.366;2023-05-10T03:23:04;13.50;99.90
20481;DHT22;10399;50.754;3.366;2023-05-10T03:25:35;13.50;99.90
20481;DHT22;10399;50.754;3.366;2023-05-10T03:28:04;13.40;99.90
20481;DHT22;10399;50.754;3.366;2023-05-10T03:30:33;13.30;99.90
20481;DHT22;10399;50.754;3.366;2023-05-10T03:33:05;13.20;99.90
20481;DHT22;10399;50.754;3.366;2023-05-10T03:35:33;13.20;99.90
20481;DHT22;10399;50.754;3.366;2023-05-10T03:38:01;13.20;99.90
20481;DHT22;10399;50.754;3.366;2023-05-10T03:40:28;13.50;99.90
20481;DHT22;10399;50.754;3.366;2023-05-10T03:43:01;13.40;99.90
20481;DHT22;10399;50.754;3.366;2023-05-10T03:45:28;13.60;99.90
20481;DHT22;10399;50.754;3.366;2023-05-10T03:47:55;13.50;99.90
20481;DHT22;10399;50.754;3.366;2023-05-10T03:50:23;13.40;99.90
20481;DHT22;10399;50.754;3.366;2023-05-10T03:52:50;13.60;99.90
20481;DHT22;10399;50.754;3.366;2023-05-10T03:55:20;13.50;99.90
20481;DHT22;10399;50.754;3.366;2023-05-10T03:57:47;13.60;99.90
20481;DHT22;10399;50.754;3.366;2023-05-10T04:00:16;13.60;99.90
20481;DHT22;10399;50.754;3.366;2023-05-10T04:02:44;13.50;99.90
20481;DHT22;10399;50.754;3.366;2023-05-10T04:05:12;13.40;99.90
20481;DHT22;10399;50.754;3.366;2023-05-10T04:07:39;13.30;99.90
20481;DHT22;10399;50.754;3.366;2023-05-10T04:10:07;13.40;99.90
20481;DHT22;10399;50.754;3.366;2023-05-10T04:12:35;13.40;99.90
20481;DHT22;10399;50.754;3.366;2023-05-10T04:15:02;13.50;99.90
20481;DHT22;10399;50.754;3.366;2023-05-10T04:17:30;13.70;99.90
20481;DHT22;10399;50.754;3.366;2023-05-10T04:19:58;13.80;99.90
20481;DHT22;10399;50.754;3.366;2023-05-10T04:22:25;13.90;99.90
20481;DHT22;10399;50.754;3.366;2023-05-10T04:24:51;13.90;99.90
20481;DHT22;10399;50.754;3.366;2023-05-10T04:27:18;13.80;99.90
20481;DHT22;10399;50.754;3.366;2023-05-10T04:29:45;13.70;99.90
20481;DHT22;10399;50.754;3.366;2023-05-10T04:32:13;13.80;99.90
20481;DHT22;10399;50.754;3.366;2023-05-10T04:34:40;13.70;99.90
20481;DHT22;10399;50.754;3.366;2023-05-10T04:37:07;13.60;99.90
20481;DHT22;10399;50.754;3.366;2023-05-10T04:39:34;13.60;99.90
20481;DHT22;10399;50.754;3.366;2023-05-10T04:42:03;13.50;99.90
20481;DHT22;10399;50.754;3.366;2023-05-10T04:44:32;13.60;99.90
20481;DHT22;10399;50.754;3.366;2023-05-10T04:46:59;13.80;99.90
20481;DHT22;10399;50.754;3.366;2023-05-10T04:49:26;13.80;99.90
20481;DHT22;10399;50.754;3.366;2023-05-10T04:51:54;13.90;99.90
20481;DHT22;10399;50.754;3.366;2023-05-10T04:54:21;13.80;99.90
20481;DHT22;10399;50.754;3.366;2023-05-10T04:56:48;13.80;99.90
20481;DHT22;10399;50.754;3.366;2023-05-10T04:59:15;13.60;99.90
20481;DHT22;10399;50.754;3.366;2023-05-10T05:01:45;13.50;99.90
20481;DHT22;10399;50.754;3.366;2023-05-10T05:04:12;13.70;99.90
20481;DHT22;10399;50.754;3.366;2023-05-10T05:06:39;13.70;99.90
20481;DHT22;10399;50.754;3.366;2023-05-10T05:09:06;13.80;99.90
20481;DHT22;10399;50.754;3.366;2023-05-10T05:11:33;13.80;99.90
20481;DHT22;10399;50.754;3.366;2023-05-10T05:14:00;13.80;99.90
20481;DHT22;10399;50.754;3.366;2023-05-10T05:16:27;13.80;99.90
20481;DHT22;10399;50.754;3.366;2023-05-10T05:18:54;13.90;99.90
20481;DHT22;10399;50.754;3.366;2023-05-10T05:21:21;13.80;99.90
20481;DHT22;10399;50.754;3.366;2023-05-10T05:23:48;13.80;99.90
20481;DHT22;10399;50.754;3.366;2023-05-10T05:26:15;13.90;99.90
20481;DHT22;10399;50.754;3.366;2023-05-10T05:28:43;13.90;99.90
20481;DHT22;10399;50.754;3.366;2023-05-10T05:31:10;14.00;99.90
20481;DHT22;10399;50.754;3.366;2023-05-10T05:33:37;13.70;99.90
20481;DHT22;10399;50.754;3.366;2023-05-10T05:36:05;13.60;99.90
20481;DHT22;10399;50.754;3.366;2023-05-10T05:38:33;13.60;99.90
20481;DHT22;10399;50.754;3.366;2023-05-10T05:41:00;13.90;99.90
20481;DHT22;10399;50.754;3.366;2023-05-10T05:43:27;13.90;99.90
20481;DHT22;10399;50.754;3.366;2023-05-10T05:45:54;14.00;99.90
20481;DHT22;10399;50.754;3.366;2023-05-10T05:48:22;14.00;99.90
20481;DHT22;10399;50.754;3.366;2023-05-10T05:50:49;13.90;99.90
20481;DHT22;10399;50.754;3.366;2023-05-10T05:53:16;14.00;99.90
20481;DHT22;10399;50.754;3.366;2023-05-10T05:55:56;13.90;99.90
20481;DHT22;10399;50.754;3.366;2023-05-10T05:58:27;13.90;99.90
20481;DHT22;10399;50.754;3.366;2023-05-10T06:00:54;13.90;99.90
20481;DHT22;10399;50.754;3.366;2023-05-10T06:03:21;13.90;99.90
20481;DHT22;10399;50.754;3.366;2023-05-10T06:05:48;13.80;99.90
20481;DHT22;10399;50.754;3.366;2023-05-10T06:08:16;13.70;99.90
20481;DHT22;10399;50.754;3.366;2023-05-10T06:10:43;13.90;99.90
20481;DHT22;10399;50.754;3.366;2023-05-10T06:13:11;13.70;99.90
20481;DHT22;10399;50.754;3.366;2023-05-10T06:15:38;13.80;99.90
20481;DHT22;10399;50.754;3.366;2023-05-10T06:18:05;13.90;99.90
20481;DHT22;10399;50.754;3.366;2023-05-10T06:20:33;14.00;99.90
20481;DHT22;10399;50.754;3.366;2023-05-10T06:23:00;14.00;99.90
20481;DHT22;10399;50.754;3.366;2023-05-10T06:25:27;13.80;99.90
20481;DHT22;10399;50.754;3.366;2023-05-10T06:27:54;13.70;99.90
20481;DHT22;10399;50.754;3.366;2023-05-10T06:30:27;13.80;99.90
20481;DHT22;10399;50.754;3.366;2023-05-10T06:32:56;13.80;99.90
20481;DHT22;10399;50.754;3.366;2023-05-10T06:35:23;13.90;99.90
20481;DHT22;10399;50.754;3.366;2023-05-10T06:37:50;14.00;99.90
20481;DHT22;10399;50.754;3.366;2023-05-10T06:40:18;14.10;99.90
20481;DHT22;10399;50.754;3.366;2023-05-10T06:42:45;14.20;99.90
20481;DHT22;10399;50.754;3.366;2023-05-10T06:45:13;14.20;99.90
20481;DHT22;10399;50.754;3.366;2023-05-10T06:47:42;14.00;99.90
20481;DHT22;10399;50.754;3.366;2023-05-10T06:50:09;13.90;99.90
20481;DHT22;10399;50.754;3.366;2023-05-10T06:52:38;14.00;99.90
20481;DHT22;10399;50.754;3.366;2023-05-10T06:55:06;14.20;99.90
20481;DHT22;10399;50.754;3.366;2023-05-10T06:57:33;14.10;99.90
20481;DHT22;10399;50.754;3.366;2023-05-10T07:00:01;14.10;99.90
20481;DHT22;10399;50.754;3.366;2023-05-10T07:02:31;14.10;99.90
20481;DHT22;10399;50.754;3.366;2023-05-10T07:04:58;14.00;99.90
20481;DHT22;10399;50.754;3.366;2023-05-10T07:07:28;14.10;99.90
20481;DHT22;10399;50.754;3.366;2023-05-10T07:09:55;14.20;99.90
20481;DHT22;10399;50.754;3.366;2023-05-10T07:12:24;14.20;99.90
20481;DHT22;10399;50.754;3.366;2023-05-10T07:14:52;14.10;99.90
20481;DHT22;10399;50.754;3.366;2023-05-10T07:17:19;14.20;99.90
20481;DHT22;10399;50.754;3.366;2023-05-10T07:19:46;14.30;99.90
20481;DHT22;10399;50.754;3.366;2023-05-10T07:22:14;14.20;99.90
20481;DHT22;10399;50.754;3.366;2023-05-10T07:24:41;14.20;99.90
20481;DHT22;10399;50.754;3.366;2023-05-10T07:27:08;14.10;99.90
20481;DHT22;10399;50.754;3.366;2023-05-10T07:29:36;14.00;99.90
20481;DHT22;10399;50.754;3.366;2023-05-10T07:32:05;14.00;99.90
20481;DHT22;10399;50.754;3.366;2023-05-10T07:34:33;14.10;99.90
20481;DHT22;10399;50.754;3.366;2023-05-10T07:37:00;14.20;99.90
20481;DHT22;10399;50.754;3.366;2023-05-10T07:39:27;14.10;99.90
20481;DHT22;10399;50.754;3.366;2023-05-10T07:41:55;14.10;99.90
20481;DHT22;10399;50.754;3.366;2023-05-10T07:44:22;14.10;99.90
20481;DHT22;10399;50.754;3.366;2023-05-10T07:46:49;14.30;99.90
20481;DHT22;10399;50.754;3.366;2023-05-10T07:49:16;14.40;99.90
20481;DHT22;10399;50.754;3.366;2023-05-10T07:51:43;14.60;99.90
20481;DHT22;10399;50.754;3.366;2023-05-10T07:54:11;14.40;99.90
20481;DHT22;10399;50.754;3.366;2023-05-10T07:56:38;14.40;99.90
20481;DHT22;10399;50.754;3.366;2023-05-10T07:59:06;14.30;99.90
20481;DHT22;10399;50.754;3.366;2023-05-10T08:01:36;14.30;99.90
20481;DHT22;10399;50.754;3.366;2023-05-10T08:04:03;14.50;99.90
20481;DHT22;10399;50.754;3.366;2023-05-10T08:06:30;14.60;99.90
20481;DHT22;10399;50.754;3.366;2023-05-10T08:08:57;14.50;99.90
20481;DHT22;10399;50.754;3.366;2023-05-10T08:11:24;14.60;99.90
20481;DHT22;10399;50.754;3.366;2023-05-10T08:13:52;14.70;99.90
20481;DHT22;10399;50.754;3.366;2023-05-10T08:16:20;14.90;99.90
20481;DHT22;10399;50.754;3.366;2023-05-10T08:18:47;14.80;99.90
20481;DHT22;10399;50.754;3.366;2023-05-10T08:21:16;14.70;99.90
20481;DHT22;10399;50.754;3.366;2023-05-10T08:23:43;14.80;99.90
20481;DHT22;10399;50.754;3.366;2023-05-10T08:26:12;14.80;99.90
20481;DHT22;10399;50.754;3.366;2023-05-10T08:28:39;14.90;99.90
20481;DHT22;10399;50.754;3.366;2023-05-10T08:31:06;14.90;99.90
20481;DHT22;10399;50.754;3.366;2023-05-10T08:33:33;14.80;99.90
20481;DHT22;10399;50.754;3.366;2023-05-10T08:36:00;14.90;99.90
20481;DHT22;10399;50.754;3.366;2023-05-10T08:38:28;15.00;99.90
20481;DHT22;10399;50.754;3.366;2023-05-10T08:40:56;14.80;99.90
20481;DHT22;10399;50.754;3.366;2023-05-10T08:43:26;14.70;99.90
20481;DHT22;10399;50.754;3.366;2023-05-10T08:45:55;14.70;99.90
20481;DHT22;10399;50.754;3.366;2023-05-10T08:48:24;14.70;99.90
20481;DHT22;10399;50.754;3.366;2023-05-10T08:50:53;14.90;99.90
20481;DHT22;10399;50.754;3.366;2023-05-10T08:53:24;14.90;99.90
20481;DHT22;10399;50.754;3.366;2023-05-10T08:55:53;15.00;99.90
20481;DHT22;10399;50.754;3.366;2023-05-10T08:58:20;15.00;99.90
20481;DHT22;10399;50.754;3.366;2023-05-10T09:00:49;14.80;99.90
20481;DHT22;10399;50.754;3.366;2023-05-10T09:03:18;14.80;99.90
20481;DHT22;10399;50.754;3.366;2023-05-10T09:05:45;14.90;99.90
20481;DHT22;10399;50.754;3.366;2023-05-10T09:08:13;15.10;99.90
20481;DHT22;10399;50.754;3.366;2023-05-10T09:10:46;15.10;99.90
20481;DHT22;10399;50.754;3.366;2023-05-10T09:13:14;15.30;99.90
20481;DHT22;10399;50.754;3.366;2023-05-10T09:15:44;15.30;99.90
20481;DHT22;10399;50.754;3.366;2023-05-10T09:18:12;15.40;99.90
20481;DHT22;10399;50.754;3.366;2023-05-10T09:20:40;15.50;99.90
20481;DHT22;10399;50.754;3.366;2023-05-10T09:23:08;15.50;99.90
20481;DHT22;10399;50.754;3.366;2023-05-10T09:25:35;15.50;99.90
20481;DHT22;10399;50.754;3.366;2023-05-10T09:28:06;15.40;99.90
20481;DHT22;10399;50.754;3.366;2023-05-10T09:30:35;15.40;99.90
20481;DHT22;10399;50.754;3.366;2023-05-10T09:33:02;15.40;99.90
20481;DHT22;10399;50.754;3.366;2023-05-10T09:35:31;15.50;99.90
20481;DHT22;10399;50.754;3.366;2023-05-10T09:38:03;15.70;99.90
20481;DHT22;10399;50.754;3.366;2023-05-10T09:40:31;15.80;99.90
20481;DHT22;10399;50.754;3.366;2023-05-10T09:43:06;15.70;99.90
20481;DHT22;10399;50.754;3.366;2023-05-10T09:45:34;15.60;99.90
20481;DHT22;10399;50.754;3.366;2023-05-10T09:48:09;15.60;99.90
20481;DHT22;10399;50.754;3.366;2023-05-10T09:50:36;15.80;99.90
20481;DHT22;10399;50.754;3.366;2023-05-10T09:53:03;15.80;99.90
20481;DHT22;10399;50.754;3.366;2023-05-10T09:55:44;15.50;99.90
20481;DHT22;10399;50.754;3.366;2023-05-10T09:58:13;15.40;99.90
20481;DHT22;10399;50.754;3.366;2023-05-10T10:00:43;15.40;99.90
20481;DHT22;10399;50.754;3.366;2023-05-10T10:03:16;15.30;99.90
20481;DHT22;10399;50.754;3.366;2023-05-10T10:05:44;15.30;99.90
20481;DHT22;10399;50.754;3.366;2023-05-10T10:08:11;15.50;99.90
20481;DHT22;10399;50.754;3.366;2023-05-10T10:10:40;15.60;99.90
20481;DHT22;10399;50.754;3.366;2023-05-10T10:13:08;15.50;99.90
20481;DHT22;10399;50.754;3.366;2023-05-10T10:15:35;15.70;99.90
20481;DHT22;10399;50.754;3.366;2023-05-10T10:18:03;15.60;99.90
20481;DHT22;10399;50.754;3.366;2023-05-10T10:20:31;15.50;99.90
20481;DHT22;10399;50.754;3.366;2023-05-10T10:22:58;15.60;99.90
20481;DHT22;10399;50.754;3.366;2023-05-10T10:25:25;15.70;99.90
20481;DHT22;10399;50.754;3.366;2023-05-10T10:35:55;15.80;99.90
20481;DHT22;10399;50.754;3.366;2023-05-10T10:38:24;15.90;99.90
20481;DHT22;10399;50.754;3.366;2023-05-10T11:00:32;16.10;99.90
20481;DHT22;10399;50.754;3.366;2023-05-10T11:05:37;16.30;99.90
20481;DHT22;10399;50.754;3.366;2023-05-10T11:08:26;16.20;99.90
20481;DHT22;10399;50.754;3.366;2023-05-10T11:15:56;16.30;99.90
20481;DHT22;10399;50.754;3.366;2023-05-10T11:18:28;16.50;99.90
20481;DHT22;10399;50.754;3.366;2023-05-10T11:20:58;16.50;99.90
20481;DHT22;10399;50.754;3.366;2023-05-10T11:23:31;16.70;99.90
20481;DHT22;10399;50.754;3.366;2023-05-10T11:26:00;16.80;99.90
20481;DHT22;10399;50.754;3.366;2023-05-10T11:28:27;16.70;99.90
20481;DHT22;10399;50.754;3.366;2023-05-10T11:30:55;16.70;99.90
20481;DHT22;10399;50.754;3.366;2023-05-10T11:33:22;16.90;99.90
20481;DHT22;10399;50.754;3.366;2023-05-10T11:35:50;17.10;99.90
20481;DHT22;10399;50.754;3.366;2023-05-10T11:38:17;17.20;99.90
20481;DHT22;10399;50.754;3.366;2023-05-10T11:40:44;17.10;99.90
20481;DHT22;10399;50.754;3.366;2023-05-10T11:43:11;17.10;99.90
20481;DHT22;10399;50.754;3.366;2023-05-10T11:45:40;17.20;99.90
20481;DHT22;10399;50.754;3.366;2023-05-10T11:48:08;17.30;99.90
20481;DHT22;10399;50.754;3.366;2023-05-10T11:50:35;17.20;99.90
20481;DHT22;10399;50.754;3.366;2023-05-10T11:53:02;17.20;99.90
20481;DHT22;10399;50.754;3.366;2023-05-10T11:55:33;17.20;99.90
20481;DHT22;10399;50.754;3.366;2023-05-10T11:58:02;17.30;99.90
20481;DHT22;10399;50.754;3.366;2023-05-10T12:00:29;17.10;99.90
20481;DHT22;10399;50.754;3.366;2023-05-10T12:02:57;17.20;99.90
20481;DHT22;10399;50.754;3.366;2023-05-10T12:05:25;17.70;99.90
20481;DHT22;10399;50.754;3.366;2023-05-10T12:07:52;17.90;99.90
20481;DHT22;10399;50.754;3.366;2023-05-10T12:10:26;18.20;99.90
20481;DHT22;10399;50.754;3.366;2023-05-10T12:12:53;18.20;99.90
20481;DHT22;10399;50.754;3.366;2023-05-10T12:15:22;18.50;99.90
20481;DHT22;10399;50.754;3.366;2023-05-10T12:17:50;18.30;99.90
20481;DHT22;10399;50.754;3.366;2023-05-10T12:20:22;18.30;99.90
20481;DHT22;10399;50.754;3.366;2023-05-10T12:22:52;18.00;99.90
20481;DHT22;10399;50.754;3.366;2023-05-10T12:25:21;18.00;99.90
20481;DHT22;10399;50.754;3.366;2023-05-10T12:27:54;17.80;99.90
20481;DHT22;10399;50.754;3.366;2023-05-10T12:30:27;17.90;99.90
20481;DHT22;10399;50.754;3.366;2023-05-10T12:33:12;18.10;99.90
20481;DHT22;10399;50.754;3.366;2023-05-10T12:38:26;18.40;99.90
20481;DHT22;10399;50.754;3.366;2023-05-10T12:40:53;18.40;99.90
20481;DHT22;10399;50.754;3.366;2023-05-10T12:43:20;18.50;99.90
20481;DHT22;10399;50.754;3.366;2023-05-10T12:45:47;18.20;99.90
20481;DHT22;10399;50.754;3.366;2023-05-10T12:48:15;18.50;99.90
20481;DHT22;10399;50.754;3.366;2023-05-10T12:50:42;18.60;99.90
20481;DHT22;10399;50.754;3.366;2023-05-10T12:53:09;18.70;99.90
20481;DHT22;10399;50.754;3.366;2023-05-10T12:55:37;19.10;99.90
20481;DHT22;10399;50.754;3.366;2023-05-10T12:58:03;19.10;99.90
20481;DHT22;10399;50.754;3.366;2023-05-10T13:00:30;19.50;99.90
20481;DHT22;10399;50.754;3.366;2023-05-10T13:02:57;19.60;99.90
20481;DHT22;10399;50.754;3.366;2023-05-10T13:05:26;19.80;99.90
20481;DHT22;10399;50.754;3.366;2023-05-10T13:07:52;19.80;99.90
20481;DHT22;10399;50.754;3.366;2023-05-10T13:10:19;19.80;99.90
20481;DHT22;10399;50.754;3.366;2023-05-10T13:12:46;19.90;99.90
20481;DHT22;10399;50.754;3.366;2023-05-10T13:15:13;20.10;99.90
20481;DHT22;10399;50.754;3.366;2023-05-10T13:17:41;20.20;99.90
20481;DHT22;10399;50.754;3.366;2023-05-10T13:20:09;20.20;99.90
20481;DHT22;10399;50.754;3.366;2023-05-10T13:22:36;20.30;99.90
20481;DHT22;10399;50.754;3.366;2023-05-10T13:25:06;20.60;99.90
20481;DHT22;10399;50.754;3.366;2023-05-10T13:27:33;20.80;99.90
20481;DHT22;10399;50.754;3.366;2023-05-10T13:30:01;20.90;99.90
20481;DHT22;10399;50.754;3.366;2023-05-10T13:32:30;21.10;99.90
20481;DHT22;10399;50.754;3.366;2023-05-10T13:34:57;20.80;99.90
20481;DHT22;10399;50.754;3.366;2023-05-10T13:37:24;20.90;99.90
20481;DHT22;10399;50.754;3.366;2023-05-10T13:39:51;21.00;99.90
20481;DHT22;10399;50.754;3.366;2023-05-10T13:42:18;21.20;99.90
20481;DHT22;10399;50.754;3.366;2023-05-10T13:44:45;20.90;99.90
20481;DHT22;10399;50.754;3.366;2023-05-10T13:47:12;21.00;99.90
20481;DHT22;10399;50.754;3.366;2023-05-10T13:49:39;20.80;99.90
20481;DHT22;10399;50.754;3.366;2023-05-10T13:52:07;20.50;99.90
20481;DHT22;10399;50.754;3.366;2023-05-10T13:54:34;20.50;99.90
20481;DHT22;10399;50.754;3.366;2023-05-10T13:57:02;20.60;99.90
20481;DHT22;10399;50.754;3.366;2023-05-10T13:59:29;20.60;99.90
20481;DHT22;10399;50.754;3.366;2023-05-10T14:01:58;20.60;99.90
20481;DHT22;10399;50.754;3.366;2023-05-10T14:04:26;20.80;99.90
20481;DHT22;10399;50.754;3.366;2023-05-10T14:06:53;20.90;99.90
20481;DHT22;10399;50.754;3.366;2023-05-10T14:09:21;21.20;99.90
20481;DHT22;10399;50.754;3.366;2023-05-10T14:11:48;21.50;99.90
20481;DHT22;10399;50.754;3.366;2023-05-10T14:14:15;21.50;99.90
20481;DHT22;10399;50.754;3.366;2023-05-10T14:16:43;21.50;99.90
20481;DHT22;10399;50.754;3.366;2023-05-10T14:19:11;21.30;99.90
20481;DHT22;10399;50.754;3.366;2023-05-10T14:21:40;21.20;99.90
20481;DHT22;10399;50.754;3.366;2023-05-10T14:24:07;21.00;99.90
20481;DHT22;10399;50.754;3.366;2023-05-10T14:26:35;21.00;99.90
20481;DHT22;10399;50.754;3.366;2023-05-10T14:29:02;21.20;99.90
20481;DHT22;10399;50.754;3.366;2023-05-10T14:31:29;21.20;99.90
20481;DHT22;10399;50.754;3.366;2023-05-10T14:33:57;21.20;99.90
20481;DHT22;10399;50.754;3.366;2023-05-10T14:36:24;21.00;99.90
20481;DHT22;10399;50.754;3.366;2023-05-10T14:38:52;21.20;99.90
20481;DHT22;10399;50.754;3.366;2023-05-10T14:41:19;21.20;99.90
20481;DHT22;10399;50.754;3.366;2023-05-10T14:43:46;21.00;99.90
20481;DHT22;10399;50.754;3.366;2023-05-10T14:46:13;20.80;99.90
20481;DHT22;10399;50.754;3.366;2023-05-10T14:48:40;20.80;99.90
20481;DHT22;10399;50.754;3.366;2023-05-10T14:51:07;21.00;99.90
20481;DHT22;10399;50.754;3.366;2023-05-10T14:53:34;20.50;99.90
20481;DHT22;10399;50.754;3.366;2023-05-10T14:56:01;20.60;99.90
20481;DHT22;10399;50.754;3.366;2023-05-10T14:58:29;20.60;99.90
20481;DHT22;10399;50.754;3.366;2023-05-10T15:00:59;20.90;99.90
20481;DHT22;10399;50.754;3.366;2023-05-10T15:03:29;21.00;99.90
20481;DHT22;10399;50.754;3.366;2023-05-10T15:05:56;21.20;99.90
20481;DHT22;10399;50.754;3.366;2023-05-10T15:08:24;21.40;99.90
20481;DHT22;10399;50.754;3.366;2023-05-10T15:10:51;21.20;99.90
20481;DHT22;10399;50.754;3.366;2023-05-10T15:13:18;20.60;99.90
20481;DHT22;10399;50.754;3.366;2023-05-10T15:15:45;20.50;99.90
20481;DHT22;10399;50.754;3.366;2023-05-10T15:18:12;20.70;99.90
20481;DHT22;10399;50.754;3.366;2023-05-10T15:20:39;21.20;99.90
20481;DHT22;10399;50.754;3.366;2023-05-10T15:23:06;21.60;99.90
20481;DHT22;10399;50.754;3.366;2023-05-10T15:25:33;21.80;99.90
20481;DHT22;10399;50.754;3.366;2023-05-10T15:28:04;21.90;99.90
20481;DHT22;10399;50.754;3.366;2023-05-10T15:30:31;21.80;99.90
20481;DHT22;10399;50.754;3.366;2023-05-10T15:32:58;22.20;99.90
20481;DHT22;10399;50.754;3.366;2023-05-10T15:35:26;22.20;99.90
20481;DHT22;10399;50.754;3.366;2023-05-10T15:37:53;22.40;99.90
20481;DHT22;10399;50.754;3.366;2023-05-10T15:40:20;22.70;99.90
20481;DHT22;10399;50.754;3.366;2023-05-10T15:42:48;23.00;99.90
20481;DHT22;10399;50.754;3.366;2023-05-10T15:45:15;22.80;99.90
20481;DHT22;10399;50.754;3.366;2023-05-10T15:47:42;22.70;99.90
20481;DHT22;10399;50.754;3.366;2023-05-10T15:50:11;22.80;99.90
20481;DHT22;10399;50.754;3.366;2023-05-10T15:52:38;23.40;99.90
20481;DHT22;10399;50.754;3.366;2023-05-10T15:55:06;23.60;99.90
20481;DHT22;10399;50.754;3.366;2023-05-10T15:57:39;23.80;99.90
20481;DHT22;10399;50.754;3.366;2023-05-10T16:00:08;24.10;99.90
20481;DHT22;10399;50.754;3.366;2023-05-10T16:02:36;24.30;99.90
20481;DHT22;10399;50.754;3.366;2023-05-10T16:05:05;24.50;99.90
20481;DHT22;10399;50.754;3.366;2023-05-10T16:07:32;24.60;99.90
20481;DHT22;10399;50.754;3.366;2023-05-10T16:10:00;24.20;99.90
20481;DHT22;10399;50.754;3.366;2023-05-10T16:12:30;24.00;99.90
20481;DHT22;10399;50.754;3.366;2023-05-10T16:14:57;23.90;99.90
20481;DHT22;10399;50.754;3.366;2023-05-10T16:17:24;24.00;99.90
20481;DHT22;10399;50.754;3.366;2023-05-10T16:19:51;24.30;99.90
20481;DHT22;10399;50.754;3.366;2023-05-10T16:22:20;24.20;99.90
20481;DHT22;10399;50.754;3.366;2023-05-10T16:24:48;23.80;99.90
20481;DHT22;10399;50.754;3.366;2023-05-10T16:27:15;23.40;99.90
20481;DHT22;10399;50.754;3.366;2023-05-10T16:29:43;23.40;99.90